createdAt,value
2018-11-06T00:00:52.046Z,21.87
2018-11-06T00:03:25.595Z,22.13
2018-11-06T00:05:54.076Z,23.50
2018-11-06T00:08:22.283Z,22.60
2018-11-06T00:10:51.180Z,22.80
2018-11-06T00:13:20.126Z,23.00
2018-11-06T00:15:48.945Z,25.97
2018-11-06T00:18:17.768Z,25.93
2018-11-06T00:20:46.520Z,24.03
2018-11-06T00:23:15.375Z,25.17
2018-11-06T00:25:43.550Z,23.70
2018-11-06T00:28:11.687Z,24.87
2018-11-06T00:30:39.796Z,24.53
2018-11-06T00:33:07.919Z,23.87
2018-11-06T00:35:36.052Z,23.10
2018-11-06T00:38:04.199Z,23.23
2018-11-06T00:40:32.299Z,23.33
2018-11-06T00:43:00.409Z,23.27
2018-11-06T00:45:28.518Z,22.03
2018-11-06T00:47:56.646Z,23.10
2018-11-06T00:50:24.753Z,21.77
2018-11-06T00:52:52.876Z,24.63
2018-11-06T00:55:20.987Z,23.57
2018-11-06T00:57:49.098Z,21.87
2018-11-06T01:00:18.437Z,22.50
2018-11-06T01:02:46.918Z,21.60
2018-11-06T01:05:15.797Z,22.33
2018-11-06T01:07:44.819Z,23.00
2018-11-06T01:10:12.914Z,23.27
2018-11-06T01:12:41.260Z,23.43
2018-11-06T01:15:11.475Z,23.27
2018-11-06T01:17:39.862Z,22.07
2018-11-06T01:20:10.170Z,21.07
2018-11-06T01:22:38.303Z,21.33
2018-11-06T01:25:07.087Z,21.57
2018-11-06T01:27:35.219Z,24.93
2018-11-06T01:30:03.555Z,23.67
2018-11-06T01:32:31.675Z,21.37
2018-11-06T01:34:59.796Z,22.47
2018-11-06T01:37:27.948Z,22.27
2018-11-06T01:39:56.042Z,21.83
2018-11-06T01:42:24.196Z,23.07
2018-11-06T01:44:52.315Z,21.70
2018-11-06T01:47:20.447Z,21.37
2018-11-06T01:49:48.556Z,20.83
2018-11-06T01:52:16.679Z,20.93
2018-11-06T01:54:44.948Z,19.50
2018-11-06T01:57:13.084Z,21.20
2018-11-06T01:59:41.220Z,20.10
2018-11-06T02:02:09.330Z,19.30
2018-11-06T02:04:37.473Z,18.17
2018-11-06T02:07:05.838Z,20.83
2018-11-06T02:09:33.959Z,20.00
2018-11-06T02:12:02.080Z,19.50
2018-11-06T02:14:30.211Z,17.93
2018-11-06T02:16:58.362Z,21.57
2018-11-06T02:19:26.499Z,20.43
2018-11-06T02:21:54.612Z,22.97
2018-11-06T02:24:22.737Z,19.20
2018-11-06T02:26:50.855Z,20.63
2018-11-06T02:29:18.980Z,20.57
2018-11-06T02:31:47.103Z,23.10
2018-11-06T02:34:15.225Z,20.80
2018-11-06T02:36:43.393Z,25.97
2018-11-06T02:39:11.703Z,22.13
2018-11-06T02:41:39.820Z,23.10
2018-11-06T02:44:07.958Z,23.60
2018-11-06T02:46:36.076Z,24.27
2018-11-06T02:49:04.337Z,23.67
2018-11-06T02:51:32.439Z,23.80
2018-11-06T02:54:00.563Z,23.87
2018-11-06T02:56:28.682Z,24.50
2018-11-06T02:58:56.803Z,22.73
2018-11-06T03:01:24.920Z,24.70
2018-11-06T03:03:53.043Z,25.57
2018-11-06T03:06:21.170Z,26.07
2018-11-06T03:08:49.295Z,24.80
2018-11-06T03:11:17.416Z,26.83
2018-11-06T03:13:45.553Z,25.67
2018-11-06T03:16:13.669Z,25.33
2018-11-06T03:18:41.805Z,22.83
2018-11-06T03:21:09.924Z,25.00
2018-11-06T03:23:38.064Z,25.73
2018-11-06T03:26:06.180Z,24.83
2018-11-06T03:28:34.306Z,24.53
2018-11-06T03:31:02.510Z,25.90
2018-11-06T03:33:30.632Z,26.03
2018-11-06T03:35:58.757Z,29.50
2018-11-06T03:38:26.887Z,25.23
2018-11-06T03:40:55.017Z,27.33
2018-11-06T03:43:23.141Z,26.37
2018-11-06T03:45:51.243Z,29.13
2018-11-06T03:48:19.371Z,26.60
2018-11-06T03:50:47.498Z,27.73
2018-11-06T03:53:15.628Z,32.60
2018-11-06T03:55:43.768Z,25.80
2018-11-06T03:58:11.887Z,26.50
2018-11-06T04:00:40.028Z,29.10
2018-11-06T04:03:08.149Z,26.77
2018-11-06T04:05:36.303Z,26.67
2018-11-06T04:08:04.600Z,27.50
2018-11-06T04:10:32.745Z,25.10
2018-11-06T04:13:00.865Z,25.30
2018-11-06T04:15:29.000Z,24.73
2018-11-06T04:17:57.106Z,26.20
2018-11-06T04:20:25.236Z,28.53
2018-11-06T04:22:53.367Z,23.83
2018-11-06T04:25:21.494Z,27.67
2018-11-06T04:27:49.620Z,30.33
2018-11-06T04:30:17.745Z,28.20
2018-11-06T04:32:45.868Z,30.27
2018-11-06T04:35:14.173Z,29.70
2018-11-06T04:37:42.543Z,27.10
2018-11-06T04:40:13.886Z,29.03
2018-11-06T04:42:42.028Z,30.93
2018-11-06T04:45:11.185Z,30.00
2018-11-06T04:47:39.321Z,28.40
2018-11-06T04:50:08.342Z,29.30
2018-11-06T04:52:36.463Z,26.43
2018-11-06T04:55:05.252Z,28.30
2018-11-06T04:57:33.364Z,26.10
2018-11-06T05:00:01.484Z,27.40
2018-11-06T05:02:29.599Z,25.57
2018-11-06T05:04:57.727Z,26.80
2018-11-06T05:07:25.873Z,24.90
2018-11-06T05:09:54.024Z,23.67
2018-11-06T05:12:22.136Z,22.93
2018-11-06T05:14:50.266Z,25.47
2018-11-06T05:17:18.425Z,23.57
2018-11-06T05:19:46.572Z,23.80
2018-11-06T05:22:14.697Z,25.20
2018-11-06T05:24:42.821Z,23.87
2018-11-06T05:27:10.948Z,23.23
2018-11-06T05:29:39.044Z,24.20
2018-11-06T05:32:07.177Z,24.47
2018-11-06T05:34:35.367Z,24.43
2018-11-06T05:37:03.505Z,24.80
2018-11-06T05:39:31.687Z,23.87
2018-11-06T05:41:59.752Z,25.50
2018-11-06T05:44:27.869Z,23.30
2018-11-06T05:46:55.991Z,24.60
2018-11-06T05:49:24.111Z,21.43
2018-11-06T05:51:52.235Z,22.53
2018-11-06T05:54:20.354Z,22.60
2018-11-06T05:56:48.488Z,25.67
2018-11-06T05:59:16.624Z,25.47
2018-11-06T06:01:44.740Z,21.97
2018-11-06T06:04:12.983Z,22.17
2018-11-06T06:06:41.140Z,22.27
2018-11-06T06:09:09.248Z,22.70
2018-11-06T06:11:37.372Z,21.70
2018-11-06T06:14:05.491Z,21.70
2018-11-06T06:16:33.737Z,24.10
2018-11-06T06:19:01.829Z,21.47
2018-11-06T06:21:29.950Z,20.30
2018-11-06T06:23:58.074Z,20.57
2018-11-06T06:26:26.214Z,22.00
2018-11-06T06:28:55.358Z,23.50
2018-11-06T06:31:23.488Z,25.13
2018-11-06T06:33:51.604Z,22.70
2018-11-06T06:36:19.754Z,21.33
2018-11-06T06:38:48.029Z,21.87
2018-11-06T06:41:16.065Z,21.03
2018-11-06T06:43:44.179Z,22.70
2018-11-06T06:46:12.321Z,21.80
2018-11-06T06:48:40.428Z,23.30
2018-11-06T06:51:08.565Z,20.60
2018-11-06T06:53:36.672Z,22.47
2018-11-06T06:56:05.428Z,22.80
2018-11-06T06:58:33.570Z,24.00
2018-11-06T07:01:01.725Z,21.20
2018-11-06T07:03:29.838Z,21.50
2018-11-06T07:05:57.968Z,19.73
2018-11-06T07:08:26.080Z,20.50
2018-11-06T07:10:54.203Z,20.47
2018-11-06T07:13:22.325Z,20.70
2018-11-06T07:15:50.436Z,20.37
2018-11-06T07:18:18.592Z,20.77
2018-11-06T07:20:46.734Z,20.33
2018-11-06T07:23:14.848Z,19.40
2018-11-06T07:25:42.972Z,19.90
2018-11-06T07:28:11.106Z,20.53
2018-11-06T07:30:39.226Z,20.03
2018-11-06T07:33:07.339Z,20.63
2018-11-06T07:35:35.681Z,21.20
2018-11-06T07:38:03.611Z,20.17
2018-11-06T07:40:31.805Z,19.50
2018-11-06T07:42:59.892Z,18.97
2018-11-06T07:45:28.003Z,21.67
2018-11-06T07:47:56.120Z,24.20
2018-11-06T07:50:24.250Z,22.53
2018-11-06T07:52:52.369Z,22.33
2018-11-06T07:55:20.495Z,23.40
2018-11-06T07:57:48.623Z,22.97
2018-11-06T08:00:21.215Z,27.30
2018-11-06T08:02:49.723Z,26.60
2018-11-06T08:05:18.168Z,26.43
2018-11-06T08:07:47.084Z,26.70
2018-11-06T08:10:15.224Z,25.03
2018-11-06T08:12:44.520Z,26.97
2018-11-06T08:15:13.161Z,30.70
2018-11-06T08:17:42.004Z,30.00
2018-11-06T08:20:10.118Z,32.43
2018-11-06T08:22:38.764Z,29.77
2018-11-06T08:25:08.154Z,30.53
2018-11-06T08:27:36.456Z,31.40
2018-11-06T08:30:05.375Z,35.20
2018-11-06T08:32:33.860Z,36.60
2018-11-06T08:35:01.610Z,31.47
2018-11-06T08:37:29.734Z,33.23
2018-11-06T08:39:57.863Z,32.93
2018-11-06T08:42:26.012Z,34.63
2018-11-06T08:44:54.269Z,36.20
2018-11-06T08:47:22.578Z,36.50
2018-11-06T08:49:50.687Z,34.73
2018-11-06T08:52:18.807Z,35.63
2018-11-06T08:54:46.962Z,35.47
2018-11-06T08:57:15.093Z,34.67
2018-11-06T08:59:43.324Z,36.87
2018-11-06T09:02:11.602Z,39.43
2018-11-06T09:04:40.009Z,38.93
2018-11-06T09:07:08.157Z,36.50
2018-11-06T09:09:36.301Z,39.07
2018-11-06T09:12:04.451Z,38.40
2018-11-06T09:14:32.589Z,42.43
2018-11-06T09:17:00.747Z,43.03
2018-11-06T09:19:28.827Z,39.77
2018-11-06T09:21:56.965Z,38.57
2018-11-06T09:24:25.087Z,38.53
2018-11-06T09:26:53.212Z,36.00
2018-11-06T09:29:21.408Z,37.27
2018-11-06T09:31:49.541Z,33.60
2018-11-06T09:34:17.671Z,33.57
2018-11-06T09:36:45.799Z,34.00
2018-11-06T09:39:13.923Z,34.80
2018-11-06T09:41:42.304Z,33.47
2018-11-06T09:44:10.434Z,33.33
2018-11-06T09:46:38.651Z,34.03
2018-11-06T09:49:07.252Z,32.87
2018-11-06T09:51:35.464Z,34.33
2018-11-06T09:54:03.585Z,30.53
2018-11-06T09:56:31.721Z,30.80
2018-11-06T09:58:59.840Z,27.60
2018-11-06T10:01:27.951Z,25.97
2018-11-06T10:03:56.132Z,24.30
2018-11-06T10:06:24.397Z,24.73
2018-11-06T10:08:52.444Z,25.00
2018-11-06T10:11:20.825Z,24.37
2018-11-06T10:13:48.939Z,24.20
2018-11-06T10:16:17.077Z,23.60
2018-11-06T10:18:45.201Z,23.77
2018-11-06T10:21:13.353Z,22.33
2018-11-06T10:23:41.430Z,23.90
2018-11-06T10:26:09.552Z,20.23
2018-11-06T10:28:37.702Z,20.97
2018-11-06T10:31:05.837Z,21.20
2018-11-06T10:33:33.975Z,20.40
2018-11-06T10:36:02.112Z,20.03
2018-11-06T10:38:30.265Z,17.40
2018-11-06T10:40:58.395Z,17.77
2018-11-06T10:43:26.523Z,16.33
2018-11-06T10:45:54.655Z,16.87
2018-11-06T10:48:22.798Z,16.00
2018-11-06T10:50:50.925Z,16.60
2018-11-06T10:53:19.054Z,17.33
2018-11-06T10:55:47.739Z,16.27
2018-11-06T10:58:15.935Z,16.80
2018-11-06T11:00:49.419Z,16.10
2018-11-06T11:03:22.809Z,15.13
2018-11-06T11:05:50.946Z,17.03
2018-11-06T11:08:19.095Z,16.00
2018-11-06T11:10:47.236Z,15.07
2018-11-06T11:13:15.457Z,15.77
2018-11-06T11:15:43.548Z,17.07
2018-11-06T11:18:11.676Z,17.57
2018-11-06T11:20:39.794Z,16.53
2018-11-06T11:23:07.933Z,17.87
2018-11-06T11:25:36.096Z,17.37
2018-11-06T11:28:04.308Z,16.60
2018-11-06T11:30:32.515Z,17.53
2018-11-06T11:33:00.652Z,16.30
2018-11-06T11:35:29.230Z,15.60
2018-11-06T11:37:57.353Z,16.30
2018-11-06T11:40:25.484Z,15.87
2018-11-06T11:42:53.603Z,16.10
2018-11-06T11:45:21.724Z,15.47
2018-11-06T11:47:49.854Z,16.57
2018-11-06T11:50:17.983Z,15.80
2018-11-06T11:52:46.090Z,15.90
2018-11-06T11:55:14.223Z,15.73
2018-11-06T11:57:42.347Z,16.03
2018-11-06T12:00:15.986Z,16.93
2018-11-06T12:02:44.005Z,18.77
2018-11-06T12:05:12.441Z,18.30
2018-11-06T12:07:40.625Z,17.63
2018-11-06T12:10:09.922Z,17.00
2018-11-06T12:12:38.109Z,21.43
2018-11-06T12:15:08.618Z,19.03
2018-11-06T12:17:36.726Z,22.40
2018-11-06T12:20:05.075Z,21.13
2018-11-06T12:22:33.187Z,21.03
2018-11-06T12:25:01.544Z,21.43
2018-11-06T12:27:29.438Z,20.03
2018-11-06T12:29:57.563Z,21.47
2018-11-06T12:32:25.698Z,20.27
2018-11-06T12:34:53.816Z,21.03
2018-11-06T12:37:21.929Z,21.60
2018-11-06T12:39:50.060Z,20.07
2018-11-06T12:42:18.265Z,20.83
2018-11-06T12:44:46.386Z,21.97
2018-11-06T12:47:14.581Z,23.07
2018-11-06T12:49:42.707Z,20.33
2018-11-06T12:52:10.828Z,21.60
2018-11-06T12:54:38.962Z,20.10
2018-11-06T12:57:07.094Z,20.90
2018-11-06T12:59:35.216Z,22.00
2018-11-06T13:02:03.641Z,22.77
2018-11-06T13:04:31.780Z,21.67
2018-11-06T13:06:59.912Z,21.40
2018-11-06T13:09:28.040Z,22.00
2018-11-06T13:11:56.180Z,22.90
2018-11-06T13:14:24.288Z,23.30
2018-11-06T13:16:52.468Z,23.23
2018-11-06T13:19:20.563Z,23.67
2018-11-06T13:21:48.691Z,21.83
2018-11-06T13:24:16.810Z,22.63
2018-11-06T13:26:44.957Z,23.03
2018-11-06T13:29:13.065Z,22.40
2018-11-06T13:31:41.226Z,24.60
2018-11-06T13:34:09.352Z,22.27
2018-11-06T13:36:37.479Z,22.20
2018-11-06T13:39:08.155Z,25.23
2018-11-06T13:41:36.398Z,24.50
2018-11-06T13:44:04.839Z,25.10
2018-11-06T13:46:32.860Z,24.63
2018-11-06T13:49:01.028Z,25.07
2018-11-06T13:51:29.180Z,24.00
2018-11-06T13:53:57.299Z,25.47
2018-11-06T13:56:25.417Z,24.87
2018-11-06T13:58:53.564Z,24.33
2018-11-06T14:01:21.683Z,23.50
2018-11-06T14:03:49.813Z,24.63
2018-11-06T14:06:17.951Z,24.10
2018-11-06T14:08:46.064Z,26.40
2018-11-06T14:11:14.277Z,24.57
2018-11-06T14:13:42.399Z,26.33
2018-11-06T14:16:10.545Z,23.80
2018-11-06T14:18:38.658Z,25.20
2018-11-06T14:21:06.825Z,25.70
2018-11-06T14:23:34.898Z,25.90
2018-11-06T14:26:03.011Z,25.00
2018-11-06T14:28:31.136Z,27.33
2018-11-06T14:30:59.259Z,25.80
2018-11-06T14:33:27.380Z,25.20
2018-11-06T14:35:55.613Z,28.00
2018-11-06T14:38:23.650Z,26.57
2018-11-06T14:40:51.780Z,27.07
2018-11-06T14:43:19.901Z,30.67
2018-11-06T14:45:48.011Z,30.00
2018-11-06T14:48:16.153Z,26.20
2018-11-06T14:50:44.305Z,27.43
2018-11-06T14:53:12.411Z,27.93
2018-11-06T14:55:40.527Z,25.73
2018-11-06T14:58:08.684Z,29.53
2018-11-06T15:00:36.815Z,28.50
2018-11-06T15:03:05.200Z,26.80
2018-11-06T15:05:33.373Z,26.40
2018-11-06T15:08:01.445Z,28.30
2018-11-06T15:10:29.560Z,28.00
2018-11-06T15:12:57.692Z,30.50
2018-11-06T15:15:26.034Z,28.57
2018-11-06T15:17:54.168Z,28.87
2018-11-06T15:20:22.880Z,28.53
2018-11-06T15:22:51.021Z,29.53
2018-11-06T15:25:19.551Z,29.43
2018-11-06T15:27:48.692Z,30.70
2018-11-06T15:30:17.857Z,31.40
2018-11-06T15:32:45.972Z,32.47
2018-11-06T15:35:15.209Z,34.43
2018-11-06T15:37:43.349Z,29.27
2018-11-06T15:40:13.644Z,31.97
2018-11-06T15:42:41.830Z,28.37
2018-11-06T15:45:11.497Z,30.10
2018-11-06T15:47:40.231Z,29.00
2018-11-06T15:50:09.997Z,29.30
2018-11-06T15:52:38.508Z,29.67
2018-11-06T15:55:06.712Z,28.60
2018-11-06T15:57:35.149Z,28.53
2018-11-06T16:00:04.074Z,29.43
2018-11-06T16:02:32.224Z,28.30
2018-11-06T16:05:00.345Z,26.83
2018-11-06T16:07:28.478Z,26.93
2018-11-06T16:09:56.592Z,26.50
2018-11-06T16:12:24.716Z,27.10
2018-11-06T16:14:52.835Z,29.13
2018-11-06T16:17:20.964Z,28.73
2018-11-06T16:19:49.100Z,32.90
2018-11-06T16:22:17.249Z,31.47
2018-11-06T16:24:45.373Z,33.60
2018-11-06T16:27:13.493Z,33.37
2018-11-06T16:29:41.646Z,35.50
2018-11-06T16:32:09.753Z,37.97
2018-11-06T16:34:37.885Z,36.20
2018-11-06T16:37:06.276Z,35.10
2018-11-06T16:39:34.436Z,35.20
2018-11-06T16:42:02.580Z,35.57
2018-11-06T16:44:30.712Z,37.23
2018-11-06T16:46:58.835Z,34.70
2018-11-06T16:49:27.083Z,33.87
2018-11-06T16:51:55.228Z,33.23
2018-11-06T16:54:23.366Z,32.60
2018-11-06T16:56:51.516Z,31.90
2018-11-06T16:59:19.637Z,32.40
2018-11-06T17:01:47.815Z,33.30
2018-11-06T17:04:16.010Z,30.63
2018-11-06T17:06:47.107Z,29.47
2018-11-06T17:09:15.472Z,29.00
2018-11-06T17:11:43.941Z,33.03
2018-11-06T17:14:12.080Z,32.20
2018-11-06T17:16:40.209Z,31.50
2018-11-06T17:19:08.357Z,28.93
2018-11-06T17:21:36.743Z,30.40
2018-11-06T17:24:05.225Z,33.50
2018-11-06T17:26:33.372Z,31.73
2018-11-06T17:29:02.028Z,33.70
2018-11-06T17:31:30.160Z,33.20
2018-11-06T17:33:58.280Z,32.87
2018-11-06T17:36:26.401Z,33.50
2018-11-06T17:38:54.604Z,31.47
2018-11-06T17:41:22.739Z,31.17
2018-11-06T17:43:50.877Z,30.03
2018-11-06T17:46:19.002Z,30.23
2018-11-06T17:48:47.141Z,31.47
2018-11-06T17:51:15.262Z,28.30
2018-11-06T17:53:43.392Z,28.23
2018-11-06T17:56:11.520Z,31.37
2018-11-06T17:58:39.696Z,30.23
2018-11-06T18:01:07.817Z,29.80
2018-11-06T18:03:35.937Z,29.90
2018-11-06T18:06:04.054Z,30.10
2018-11-06T18:08:32.198Z,27.10
2018-11-06T18:11:00.321Z,26.33
2018-11-06T18:13:28.448Z,28.60
2018-11-06T18:15:56.565Z,26.10
2018-11-06T18:18:24.700Z,26.97
2018-11-06T18:20:52.819Z,25.40
2018-11-06T18:23:20.957Z,28.77
2018-11-06T18:25:49.275Z,27.67
2018-11-06T18:28:35.492Z,30.10
2018-11-06T18:31:03.625Z,30.50
2018-11-06T18:33:31.831Z,30.17
2018-11-06T18:35:59.921Z,26.43
2018-11-06T18:38:28.168Z,26.67
2018-11-06T18:40:56.175Z,34.40
2018-11-06T18:43:24.349Z,38.17
2018-11-06T18:45:52.459Z,35.07
2018-11-06T18:48:20.564Z,34.80
2018-11-06T18:50:48.688Z,33.03
2018-11-06T18:53:16.846Z,31.33
2018-11-06T18:55:45.027Z,36.50
2018-11-06T18:58:13.266Z,32.70
2018-11-06T19:00:41.304Z,33.37
2018-11-06T19:03:09.408Z,30.80
2018-11-06T19:05:37.518Z,29.70
2018-11-06T19:08:05.864Z,30.23
2018-11-06T19:10:33.985Z,28.47
2018-11-06T19:13:02.075Z,27.50
2018-11-06T19:15:30.203Z,26.20
2018-11-06T19:17:58.311Z,28.60
2018-11-06T19:20:26.431Z,27.47
2018-11-06T19:22:54.566Z,28.27
2018-11-06T19:25:22.673Z,29.40
2018-11-06T19:27:50.766Z,26.83
2018-11-06T19:30:19.718Z,26.90
2018-11-06T19:32:48.071Z,26.43
2018-11-06T19:35:16.202Z,27.03
2018-11-06T19:37:44.634Z,26.10
2018-11-06T19:40:14.042Z,26.70
2018-11-06T19:42:43.063Z,26.20
2018-11-06T19:45:11.747Z,28.00
2018-11-06T19:47:39.834Z,27.30
2018-11-06T19:50:09.524Z,30.30
2018-11-06T19:52:37.908Z,30.30
2018-11-06T19:55:06.920Z,30.67
2018-11-06T19:57:35.002Z,30.60
2018-11-06T20:00:03.686Z,26.90
2018-11-06T20:02:31.771Z,29.07
2018-11-06T20:04:59.871Z,26.50
2018-11-06T20:07:27.950Z,25.37
2018-11-06T20:09:56.080Z,25.87
2018-11-06T20:12:24.256Z,28.57
2018-11-06T20:14:52.288Z,26.40
2018-11-06T20:17:20.444Z,27.43
2018-11-06T20:19:48.467Z,27.63
2018-11-06T20:22:16.575Z,28.20
2018-11-06T20:24:44.691Z,26.17
2018-11-06T20:27:12.777Z,25.83
2018-11-06T20:29:40.919Z,24.00
2018-11-06T20:32:08.950Z,24.47
2018-11-06T20:34:37.117Z,24.00
2018-11-06T20:37:13.785Z,23.30
2018-11-06T20:39:41.938Z,24.53
2018-11-06T20:42:10.026Z,23.90
2018-11-06T20:44:38.119Z,21.43
2018-11-06T20:47:06.223Z,23.77
2018-11-06T20:49:34.332Z,22.27
2018-11-06T20:52:02.458Z,21.70
2018-11-06T20:54:30.615Z,23.13
2018-11-06T20:56:58.792Z,21.03
2018-11-06T20:59:26.903Z,21.37
2018-11-06T21:01:55.010Z,22.83
2018-11-06T21:04:23.119Z,21.10
2018-11-06T21:06:51.256Z,21.77
2018-11-06T21:09:19.371Z,18.87
2018-11-06T21:11:47.533Z,21.77
2018-11-06T21:14:15.599Z,26.93
2018-11-06T21:16:43.707Z,23.90
2018-11-06T21:19:11.933Z,23.67
2018-11-06T21:21:40.035Z,23.30
2018-11-06T21:24:08.142Z,24.67
2018-11-06T21:26:39.267Z,22.47
2018-11-06T21:29:07.365Z,22.50
2018-11-06T21:31:35.503Z,21.53
2018-11-06T21:34:03.613Z,24.37
2018-11-06T21:36:31.725Z,21.87
2018-11-06T21:38:59.867Z,21.40
2018-11-06T21:41:27.986Z,23.03
2018-11-06T21:43:56.094Z,24.87
2018-11-06T21:46:24.199Z,23.10
2018-11-06T21:48:52.338Z,22.50
2018-11-06T21:51:20.445Z,21.80
2018-11-06T21:53:48.553Z,20.20
2018-11-06T21:56:16.670Z,21.00
2018-11-06T21:58:44.935Z,20.37
2018-11-06T22:01:12.991Z,25.30
2018-11-06T22:03:41.099Z,23.57
2018-11-06T22:06:09.201Z,23.37
2018-11-06T22:08:37.354Z,22.60
2018-11-06T22:11:05.483Z,25.50
2018-11-06T22:13:33.636Z,25.37
2018-11-06T22:16:01.766Z,24.10
2018-11-06T22:18:29.875Z,25.07
2018-11-06T22:20:57.974Z,24.60
2018-11-06T22:23:26.084Z,21.23
2018-11-06T22:25:54.170Z,23.30
2018-11-06T22:28:22.265Z,21.50
2018-11-06T22:30:50.395Z,24.77
2018-11-06T22:33:18.511Z,24.30
2018-11-06T22:35:46.615Z,23.53
2018-11-06T22:38:14.723Z,23.13
2018-11-06T22:40:42.829Z,23.07
2018-11-06T22:43:10.932Z,22.17
2018-11-06T22:45:39.031Z,20.43
2018-11-06T22:48:07.145Z,22.10
2018-11-06T22:50:35.255Z,21.43
2018-11-06T22:53:03.408Z,21.80
2018-11-06T22:55:31.473Z,22.40
2018-11-06T22:57:59.615Z,21.77
2018-11-06T23:00:33.859Z,20.60
2018-11-06T23:03:02.055Z,20.67
2018-11-06T23:05:30.261Z,21.27
2018-11-06T23:08:03.936Z,20.43
2018-11-06T23:10:32.104Z,19.67
2018-11-06T23:13:00.178Z,19.93
2018-11-06T23:15:28.311Z,19.30
2018-11-06T23:17:56.435Z,21.17
2018-11-06T23:20:24.546Z,19.13
2018-11-06T23:22:52.705Z,21.30
2018-11-06T23:25:20.821Z,22.80
2018-11-06T23:27:48.954Z,22.93
2018-11-06T23:30:17.056Z,20.67
2018-11-06T23:32:45.174Z,20.97
2018-11-06T23:35:13.288Z,21.57
2018-11-06T23:37:41.448Z,17.90
2018-11-06T23:40:10.153Z,23.13
2018-11-06T23:42:38.388Z,20.90
2018-11-06T23:45:06.972Z,20.00
2018-11-06T23:47:35.197Z,18.93
2018-11-06T23:50:03.662Z,19.80
2018-11-06T23:52:31.770Z,19.80
2018-11-06T23:55:00.219Z,19.57
2018-11-06T23:57:29.426Z,17.13
2018-11-06T23:59:57.913Z,17.60
